Time;durP1;ratioP1;P1;durP2;ratioP2;P2;SDS_P1;SDS_P2;PMS_P1;PMS_P2;Temp;Humidity;BMP_temperature;BMP_pressure;BME280_temperature;BME280_humidity;BME280_pressure;Samples;Min_cycle;Max_cycle;Signal;HPM_P1;HPM_P2
2022/07/22 00:02:11;;;;;;;16.58;4.60;;;;;;;24.59;100.00;98944.88;4416145;32;20046;-71
2022/07/22 00:04:38;;;;;;;5.07;3.20;;;;;;;24.55;100.00;98965.16;4407648;32;20055;-71
2022/07/22 00:07:05;;;;;;;15.60;3.87;;;;;;;24.29;100.00;98942.31;4431336;32;20055;-71
2022/07/22 00:09:32;;;;;;;13.65;3.60;;;;;;;24.33;100.00;98947.94;4429329;32;20434;-72
2022/07/22 00:11:59;;;;;;;7.40;3.62;;;;;;;24.29;100.00;98914.81;4430904;32;20093;-71
2022/07/22 00:14:25;;;;;;;8.45;3.37;;;;;;;24.22;100.00;98942.09;4425993;32;20113;-72
2022/07/22 00:16:52;;;;;;;11.38;3.28;;;;;;;24.21;100.00;98956.19;4407113;32;20342;-71
2022/07/22 00:19:18;;;;;;;3.97;3.47;;;;;;;24.14;100.00;98955.94;4428706;32;20077;-72
2022/07/22 00:21:45;;;;;;;7.55;4.35;;;;;;;23.92;100.00;98927.75;4418572;32;20046;-71
2022/07/22 00:24:11;;;;;;;15.77;5.53;;;;;;;24.03;100.00;98911.59;4419036;32;20083;-71
2022/07/22 00:26:38;;;;;;;11.43;3.47;;;;;;;24.01;100.00;98933.13;4415662;32;20030;-72
2022/07/22 00:29:04;;;;;;;10.80;4.37;;;;;;;23.87;100.00;98938.94;4400560;32;20078;-71
2022/07/22 00:31:31;;;;;;;10.93;4.03;;;;;;;23.79;100.00;98940.63;4414386;32;20439;-72
2022/07/22 00:34:00;;;;;;;13.88;5.53;;;;;;;23.21;100.00;98869.12;4420072;32;20068;-72
2022/07/22 00:36:28;;;;;;;7.03;3.50;;;;;;;23.79;100.00;98946.12;4415980;32;20664;-71
2022/07/22 00:38:54;;;;;;;13.32;3.58;;;;;;;23.88;100.00;98949.59;4415203;32;20042;-72
2022/07/22 00:41:28;;;;;;;8.63;4.10;;;;;;;23.66;100.00;98928.00;4420651;32;20440;-72
2022/07/22 00:44:06;;;;;;;8.32;5.37;;;;;;;23.56;100.00;98888.81;4422191;32;20060;-72
2022/07/22 00:46:34;;;;;;;11.55;3.83;;;;;;;23.69;100.00;98933.63;4424502;32;20072;-71
2022/07/22 00:49:02;;;;;;;16.20;3.60;;;;;;;23.57;100.00;98933.59;4414043;32;20064;-72
2022/07/22 00:51:29;;;;;;;9.40;3.92;;;;;;;23.43;100.00;98928.38;4415262;32;20078;-72
2022/07/22 00:53:57;;;;;;;21.95;4.78;;;;;;;23.74;100.00;98932.59;4423708;32;20060;-71
2022/07/22 00:56:24;;;;;;;8.90;4.05;;;;;;;23.28;100.00;98882.31;4423215;32;20062;-71
2022/07/22 00:58:54;;;;;;;11.77;5.65;;;;;;;23.53;100.00;98906.00;4415440;32;20347;-71
2022/07/22 01:01:21;;;;;;;11.70;4.45;;;;;;;23.72;100.00;98926.63;4412539;32;20193;-71
2022/07/22 01:03:48;;;;;;;8.93;4.03;;;;;;;23.63;100.00;98909.44;4424847;32;20081;-71
2022/07/22 01:06:14;;;;;;;13.62;4.28;;;;;;;23.23;100.00;98913.53;4422739;32;20038;-71
2022/07/22 01:08:41;;;;;;;23.02;4.78;;;;;;;23.36;100.00;98917.94;4428091;32;20413;-71
2022/07/22 01:11:10;;;;;;;14.13;4.80;;;;;;;23.35;100.00;98927.31;4430512;32;20072;-72
2022/07/22 01:13:36;;;;;;;12.13;3.95;;;;;;;23.32;100.00;98922.50;4429270;32;20060;-71
2022/07/22 01:16:06;;;;;;;6.35;3.72;;;;;;;23.46;100.00;98922.22;4431194;32;20362;-71
2022/07/22 01:18:32;;;;;;;15.98;4.87;;;;;;;23.50;100.00;98895.69;4430818;32;20042;-71
2022/07/22 01:20:58;;;;;;;5.93;3.78;;;;;;;23.38;100.00;98920.34;4430772;32;20081;-71
2022/07/22 01:23:26;;;;;;;14.25;4.90;;;;;;;23.34;100.00;98922.16;4414371;32;20394;-72
2022/07/22 01:25:52;;;;;;;13.60;4.00;;;;;;;23.44;100.00;98913.50;4415109;32;20074;-71
2022/07/22 01:28:19;;;;;;;6.22;4.15;;;;;;;23.33;100.00;98912.34;4415166;32;20067;-72
2022/07/22 01:30:46;;;;;;;10.88;3.45;;;;;;;23.24;100.00;98906.13;4416230;32;20046;-72
2022/07/22 01:33:12;;;;;;;13.40;4.90;;;;;;;23.37;100.00;98911.31;4414321;32;20064;-71
2022/07/22 01:35:38;;;;;;;7.85;4.37;;;;;;;22.89;100.00;98881.66;4415572;32;20089;-71
2022/07/22 01:38:06;;;;;;;12.07;4.18;;;;;;;23.30;100.00;98897.31;4414265;32;20056;-72
2022/07/22 01:40:33;;;;;;;17.27;4.53;;;;;;;23.05;100.00;98868.91;4418600;32;20143;-71
2022/07/22 01:42:59;;;;;;;16.73;4.05;;;;;;;23.32;100.00;98899.72;4414848;32;20150;-72
2022/07/22 01:45:26;;;;;;;8.77;3.97;;;;;;;23.32;100.00;98891.50;4413570;32;20061;-72
2022/07/22 01:47:52;;;;;;;6.97;3.67;;;;;;;23.37;100.00;98896.75;4415417;32;20050;-71
2022/07/22 01:50:18;;;;;;;6.82;3.50;;;;;;;23.41;100.00;98897.72;4415193;32;20046;-71
2022/07/22 01:52:45;;;;;;;8.32;3.90;;;;;;;23.33;100.00;98901.34;4414062;32;20555;-70
2022/07/22 01:55:12;;;;;;;12.48;4.10;;;;;;;22.84;100.00;98845.03;4415009;32;20065;-70
2022/07/22 01:57:39;;;;;;;11.40;4.37;;;;;;;23.00;100.00;98889.16;4427401;32;20078;-71
2022/07/22 02:00:11;;;;;;;10.13;3.97;;;;;;;22.72;100.00;98883.41;4429880;32;20522;-70
2022/07/22 02:02:42;;;;;;;;;;;;;;;22.64;100.00;98870.53;4418576;32;20427;-70
2022/07/22 02:05:09;;;;;;;16.40;6.25;;;;;;;23.03;100.00;98893.19;4416628;32;19973;-70
2022/07/22 02:07:36;;;;;;;11.82;4.03;;;;;;;22.87;100.00;98894.94;4415574;32;20064;-71
2022/07/22 02:10:04;;;;;;;12.55;3.80;;;;;;;22.91;100.00;98873.87;4418034;32;20034;-71
2022/07/22 02:12:32;;;;;;;10.35;4.60;;;;;;;23.09;100.00;98900.09;4416192;32;20445;-71
2022/07/22 02:14:59;;;;;;;21.37;4.87;;;;;;;23.03;100.00;98904.16;4425631;32;20450;-71
2022/07/22 02:17:25;;;;;;;7.18;5.12;;;;;;;23.19;100.00;98907.91;4433083;32;20026;-72
2022/07/22 02:19:52;;;;;;;10.27;3.92;;;;;;;22.96;100.00;98898.38;4427931;32;20166;-71
2022/07/22 02:22:18;;;;;;;10.98;3.70;;;;;;;22.55;100.00;98845.13;4419907;32;20541;-72
2022/07/22 02:24:46;;;;;;;8.77;3.80;;;;;;;22.92;100.00;98898.25;4433163;32;20034;-71
2022/07/22 02:27:13;;;;;;;17.90;4.00;;;;;;;23.09;100.00;98902.84;4432864;32;20051;-71
2022/07/22 02:29:41;;;;;;;7.50;4.35;;;;;;;22.78;100.00;98904.00;4429816;32;20035;-71
2022/07/22 02:32:08;;;;;;;7.55;4.70;;;;;;;22.77;100.00;98876.91;4432983;32;20099;-71
2022/07/22 02:34:34;;;;;;;16.27;3.87;;;;;;;22.84;100.00;98899.94;4432798;32;20034;-71
2022/07/22 02:37:01;;;;;;;13.25;4.30;;;;;;;22.87;100.00;98911.41;4432818;32;20398;-71
2022/07/22 02:39:27;;;;;;;14.50;4.00;;;;;;;22.47;100.00;98883.25;4431915;32;20056;-71
2022/07/22 02:41:54;;;;;;;11.85;4.65;;;;;;;22.87;100.00;98911.41;4417767;32;20038;-71
2022/07/22 02:44:21;;;;;;;10.35;4.82;;;;;;;22.43;100.00;98882.31;4425554;32;20383;-71
2022/07/22 02:46:47;;;;;;;10.77;4.10;;;;;;;22.65;100.00;98905.09;4427066;32;20052;-71
2022/07/22 02:49:14;;;;;;;14.30;3.78;;;;;;;22.53;100.00;98907.72;4421131;32;20444;-70
2022/07/22 02:51:40;;;;;;;12.73;4.93;;;;;;;22.60;100.00;98917.06;4409601;32;20047;-70
2022/07/22 02:54:07;;;;;;;7.82;4.22;;;;;;;22.60;100.00;98924.50;4413497;32;20810;-71
2022/07/22 02:56:34;;;;;;;10.40;4.15;;;;;;;22.60;100.00;98913.50;4428833;32;20064;-70
2022/07/22 02:59:01;;;;;;;8.88;4.07;;;;;;;22.65;100.00;98919.59;4431673;32;20115;-70
2022/07/22 03:01:27;;;;;;;21.87;4.25;;;;;;;22.44;100.00;98883.91;4430228;32;20352;-72
2022/07/22 03:03:54;;;;;;;18.17;4.10;;;;;;;22.26;100.00;98849.47;4420804;32;20037;-71
2022/07/22 03:06:21;;;;;;;13.35;4.87;;;;;;;22.85;100.00;98925.47;4418624;32;20054;-70
2022/07/22 03:08:47;;;;;;;11.40;4.57;;;;;;;22.72;100.00;98926.50;4429234;32;20453;-71
2022/07/22 03:11:14;;;;;;;9.48;4.53;;;;;;;22.55;100.00;98916.47;4422230;32;20046;-71
2022/07/22 03:13:41;;;;;;;5.80;4.37;;;;;;;22.62;100.00;98933.19;4430003;32;20065;-71
2022/07/22 03:16:07;;;;;;;9.75;4.50;;;;;;;22.68;100.00;98942.84;4431455;32;20082;-70
2022/07/22 03:18:37;;;;;;;22.10;5.15;;;;;;;22.50;100.00;98933.91;4432291;32;20050;-70
2022/07/22 03:21:03;;;;;;;10.30;5.30;;;;;;;22.37;100.00;98933.00;4418523;32;20051;-70
2022/07/22 03:23:30;;;;;;;18.58;4.40;;;;;;;22.44;100.00;98924.25;4430811;32;20026;-71
2022/07/22 03:25:57;;;;;;;16.20;5.30;;;;;;;22.49;100.00;98935.03;4431347;32;20046;-71
2022/07/22 03:28:24;;;;;;;16.20;5.25;;;;;;;22.26;100.00;98905.13;4431797;32;20041;-71
2022/07/22 03:30:52;;;;;;;14.55;5.05;;;;;;;22.36;100.00;98934.13;4428508;32;20050;-70
2022/07/22 03:33:18;;;;;;;9.30;5.30;;;;;;;22.43;100.00;98928.94;4430521;32;20327;-71
2022/07/22 03:35:45;;;;;;;14.27;4.37;;;;;;;22.41;100.00;98936.69;4427286;32;20050;-71
2022/07/22 03:38:11;;;;;;;17.83;5.93;;;;;;;22.36;100.00;98939.63;4427614;32;20084;-69
2022/07/22 03:40:38;;;;;;;13.68;6.90;;;;;;;22.23;100.00;98910.47;4432077;32;20478;-72
2022/07/22 03:43:05;;;;;;;13.52;5.87;;;;;;;22.33;100.00;98932.06;4431465;32;20046;-72
2022/07/22 03:45:31;;;;;;;9.23;5.68;;;;;;;22.20;100.00;98938.56;4432065;32;20060;-71
2022/07/22 03:47:58;;;;;;;12.77;6.70;;;;;;;21.97;100.00;98911.41;4430314;32;20034;-71
2022/07/22 03:52:58;;;;;;;24.52;6.47;;;;;;;22.23;100.00;98894.03;4431032;32;20358;-71
2022/07/22 03:55:25;;;;;;;16.92;6.55;;;;;;;22.44;100.00;98930.53;4429683;32;20038;-71
2022/07/22 03:57:52;;;;;;;15.70;6.25;;;;;;;22.42;100.00;98927.34;4431335;32;20952;-71
2022/07/22 04:00:19;;;;;;;13.75;5.85;;;;;;;22.14;100.00;98897.59;4429460;32;20131;-71
2022/07/22 04:02:45;;;;;;;17.85;6.62;;;;;;;22.01;100.00;98870.41;4422208;32;20038;-72
2022/07/22 04:05:13;;;;;;;18.10;8.15;;;;;;;22.48;100.00;98928.75;4416387;32;20076;-71
2022/07/22 04:07:39;;;;;;;8.95;6.50;;;;;;;22.32;100.00;98913.97;4416530;32;20090;-71
2022/07/22 04:10:07;;;;;;;12.68;7.28;;;;;;;22.61;100.00;98926.91;4416325;32;20083;-71
2022/07/22 04:12:37;;;;;;;13.00;7.55;;;;;;;22.59;100.00;98944.81;4415326;32;20383;-72
2022/07/22 04:15:06;;;;;;;14.48;8.55;;;;;;;22.55;100.00;98944.69;4416345;32;20038;-71
2022/07/22 04:17:34;;;;;;;18.12;6.95;;;;;;;22.25;100.00;98924.66;4401502;32;20525;-71
2022/07/22 04:20:00;;;;;;;21.17;7.53;;;;;;;22.30;100.00;98928.03;4415821;32;20070;-71
2022/07/22 04:22:31;;;;;;;18.12;7.93;;;;;;;22.44;100.00;98937.97;4402661;32;20030;-71
2022/07/22 04:24:58;;;;;;;11.73;7.47;;;;;;;22.47;100.00;98943.59;4415553;32;20063;-71
2022/07/22 04:27:25;;;;;;;16.48;7.70;;;;;;;22.55;100.00;98954.88;4417387;32;20058;-71
2022/07/22 04:29:51;;;;;;;18.35;8.77;;;;;;;22.53;100.00;98946.16;4420408;32;20424;-71
2022/07/22 04:32:18;;;;;;;11.12;7.25;;;;;;;22.41;100.00;98922.97;4427256;32;20039;-72
2022/07/22 04:34:45;;;;;;;18.27;8.13;;;;;;;22.59;100.00;98950.31;4422187;32;20075;-72
2022/07/22 04:37:11;;;;;;;18.12;8.93;;;;;;;22.66;100.00;98945.12;4431155;32;20359;-72
2022/07/22 04:39:39;;;;;;;32.42;8.65;;;;;;;22.77;100.00;98935.34;4417294;32;20034;-72
2022/07/22 04:42:06;;;;;;;20.20;8.23;;;;;;;22.74;100.00;98921.50;4428606;32;20058;-72
2022/07/22 04:44:32;;;;;;;14.70;7.90;;;;;;;23.00;100.00;98951.50;4430899;32;20118;-73
2022/07/22 04:46:59;;;;;;;15.60;8.35;;;;;;;22.94;100.00;98947.34;4422601;32;20042;-73
2022/07/22 04:49:26;;;;;;;15.20;10.05;;;;;;;22.87;100.00;98933.34;4415649;32;20042;-72
2022/07/22 04:51:52;;;;;;;10.40;7.72;;;;;;;22.80;100.00;98926.47;4414776;32;20460;-72
2022/07/22 04:54:21;;;;;;;18.95;8.38;;;;;;;23.10;100.00;98958.56;4417723;32;20409;-72
2022/07/22 04:56:49;;;;;;;19.80;9.55;;;;;;;23.20;100.00;98961.72;4421495;32;20046;-71
2022/07/22 04:59:15;;;;;;;15.38;7.65;;;;;;;23.31;100.00;98975.03;4426877;32;20064;-72
2022/07/22 05:01:42;;;;;;;13.85;8.73;;;;;;;23.38;100.00;98975.31;4420435;32;20039;-72
2022/07/22 05:04:09;;;;;;;20.55;8.20;;;;;;;23.17;100.00;98953.34;4420677;32;20114;-72
2022/07/22 05:06:36;;;;;;;15.85;8.65;;;;;;;23.29;100.00;98988.31;4431066;32;20087;-72
2022/07/22 05:09:04;;;;;;;11.93;8.90;;;;;;;23.14;100.00;98982.28;4431065;32;20030;-72
2022/07/22 05:11:31;;;;;;;15.70;8.48;;;;;;;23.44;100.00;99006.09;4429764;32;20420;-71
2022/07/22 05:13:58;;;;;;;19.55;9.27;;;;;;;23.41;100.00;98996.59;4417228;32;20062;-71
2022/07/22 05:16:25;;;;;;;13.55;9.00;;;;;;;23.40;100.00;98998.53;4415600;32;20060;-71
2022/07/22 05:18:51;;;;;;;16.25;8.90;;;;;;;23.44;100.00;99006.94;4415954;32;20046;-71
2022/07/22 05:21:18;;;;;;;18.35;8.05;;;;;;;23.13;100.00;98944.16;4423257;32;20030;-71
2022/07/22 05:23:44;;;;;;;28.12;9.02;;;;;;;23.76;100.00;99023.78;4413626;32;20034;-72
2022/07/22 05:26:12;;;;;;;18.33;8.75;;;;;;;23.32;100.00;99020.59;4416590;32;20058;-71
2022/07/22 05:28:38;;;;;;;17.77;9.00;;;;;;;23.61;100.00;99021.66;4430668;32;20056;-71
2022/07/22 05:31:05;;;;;;;26.23;8.55;;;;;;;23.56;100.00;98984.97;4429846;32;20038;-72
2022/07/22 05:33:32;;;;;;;19.45;8.95;;;;;;;23.81;100.00;99015.31;4413324;32;20195;-72
2022/07/22 05:35:59;;;;;;;19.80;8.90;;;;;;;23.55;100.00;98997.13;4416023;32;20046;-72
2022/07/22 05:38:26;;;;;;;27.55;8.05;;;;;;;23.83;100.00;99015.81;4418627;32;20060;-72
2022/07/22 05:40:53;;;;;;;24.05;8.48;;;;;;;23.91;100.00;99025.91;4404587;32;20055;-72
2022/07/22 05:43:19;;;;;;;13.77;8.55;;;;;;;23.78;100.00;99013.25;4427407;32;20034;-72
2022/07/22 05:45:46;;;;;;;15.25;8.98;;;;;;;23.92;100.00;99016.53;4409178;32;20038;-72
2022/07/22 05:48:12;;;;;;;24.65;10.00;;;;;;;24.03;100.00;99002.34;4420394;32;20062;-71
2022/07/22 05:50:39;;;;;;;17.77;8.55;;;;;;;24.21;100.00;99011.22;4418603;32;20042;-73
2022/07/22 05:53:05;;;;;;;16.42;9.07;;;;;;;24.23;100.00;99015.22;4404621;32;20428;-72
2022/07/22 05:55:32;;;;;;;14.70;8.32;;;;;;;24.29;100.00;99013.84;4418458;32;20416;-72
2022/07/22 05:57:58;;;;;;;14.38;9.00;;;;;;;24.30;100.00;99015.47;4415363;32;20214;-72
2022/07/22 06:00:25;;;;;;;18.17;7.47;;;;;;;23.99;100.00;98980.22;4418369;32;20082;-72
2022/07/22 06:02:52;;;;;;;16.15;8.45;;;;;;;24.01;100.00;98986.16;4432510;32;20374;-72
2022/07/22 06:05:19;;;;;;;22.48;9.15;;;;;;;24.26;100.00;99009.03;4433754;32;20038;-72
2022/07/22 06:07:45;;;;;;;12.95;8.50;;;;;;;24.11;100.00;98984.97;4432709;32;20079;-72
2022/07/22 06:10:14;;;;;;;16.35;8.70;;;;;;;24.20;100.00;98971.09;4432562;32;20083;-72
2022/07/22 06:12:47;;;;;;;20.60;8.15;;;;;;;24.44;100.00;99003.31;4433112;32;20449;-72
2022/07/22 06:15:14;;;;;;;15.25;8.50;;;;;;;24.40;100.00;98996.91;4406085;32;20054;-70
2022/07/22 06:17:40;;;;;;;15.75;9.35;;;;;;;24.47;100.00;99008.13;4418692;32;20085;-71
2022/07/22 06:20:08;;;;;;;11.43;8.23;;;;;;;24.43;100.00;98997.03;4419752;32;20488;-72
2022/07/22 06:22:35;;;;;;;12.30;8.70;;;;;;;24.38;100.00;98967.00;4417532;32;20424;-71
2022/07/22 06:25:02;;;;;;;14.55;8.30;;;;;;;24.69;100.00;98997.88;4420807;32;20060;-72
2022/07/22 06:27:28;;;;;;;14.38;8.82;;;;;;;24.55;100.00;98970.66;4426822;32;20031;-72
2022/07/22 06:29:56;;;;;;;16.77;8.75;;;;;;;24.77;100.00;98972.16;4416811;32;20046;-70
2022/07/22 06:32:22;;;;;;;21.05;8.02;;;;;;;24.89;100.00;98988.66;4431654;32;20058;-71
2022/07/22 06:34:49;;;;;;;18.05;9.00;;;;;;;24.77;100.00;98961.94;4417548;32;20363;-72
2022/07/22 06:37:16;;;;;;;16.15;8.82;;;;;;;25.06;100.00;98992.31;4408451;32;20050;-71
2022/07/22 06:39:43;;;;;;;22.95;8.05;;;;;;;25.15;100.00;98998.47;4416688;32;20026;-72
2022/07/22 06:42:09;;;;;;;15.55;9.13;;;;;;;25.12;100.00;98966.13;4432185;32;20491;-71
2022/07/22 06:44:41;;;;;;;16.83;7.43;;;;;;;25.25;100.00;98964.94;4420009;32;20469;-71
2022/07/22 06:47:08;;;;;;;20.27;7.28;;;;;;;25.28;100.00;98942.22;4422604;32;20072;-71
2022/07/22 06:49:35;;;;;;;13.88;7.75;;;;;;;25.54;100.00;98977.59;4415174;32;20064;-74
2022/07/22 06:52:02;;;;;;;11.18;7.22;;;;;;;25.56;100.00;98957.94;4402528;32;20246;-72
2022/07/22 06:54:29;;;;;;;28.25;7.00;;;;;;;25.87;100.00;98990.28;4417631;32;20056;-72
2022/07/22 06:56:57;;;;;;;9.35;6.87;;;;;;;25.85;100.00;98972.53;4416814;32;20031;-71
2022/07/22 06:59:25;;;;;;;13.88;6.37;;;;;;;26.19;100.00;98984.84;4431493;32;20058;-71
2022/07/22 07:01:52;;;;;;;16.45;6.53;;;;;;;26.07;100.00;98994.03;4419329;32;20079;-72
2022/07/22 07:04:19;;;;;;;8.68;6.25;;;;;;;26.27;100.00;98991.34;4420391;32;20083;-72
2022/07/22 07:06:46;;;;;;;12.70;6.22;;;;;;;26.37;100.00;98979.75;4427397;32;20075;-71
2022/07/22 07:09:12;;;;;;;10.65;6.12;;;;;;;26.40;100.00;98968.00;4417450;32;20333;-72
2022/07/22 07:11:40;;;;;;;9.25;6.10;;;;;;;26.19;100.00;98935.19;4416827;32;20031;-70
2022/07/22 07:14:11;;;;;;;12.98;6.10;;;;;;;26.14;100.00;98932.69;4413668;32;20236;-72
2022/07/22 07:16:38;;;;;;;13.77;6.20;;;;;;;26.05;100.00;98935.63;4403412;32;20075;-72
2022/07/22 07:19:04;;;;;;;15.30;7.32;;;;;;;25.96;100.00;98940.50;4417120;32;20054;-72
2022/07/22 07:21:32;;;;;;;21.87;6.10;;;;;;;26.08;100.00;98956.19;4423972;32;20091;-72
2022/07/22 07:23:58;;;;;;;14.10;7.07;;;;;;;26.33;100.00;98970.63;4418611;32;20038;-75
2022/07/22 07:26:26;;;;;;;13.20;7.68;;;;;;;26.26;100.00;98973.19;4416087;32;20039;-72
2022/07/22 07:28:53;;;;;;;7.53;6.50;;;;;;;26.23;100.00;98973.88;4416066;32;20084;-72
2022/07/22 07:31:20;;;;;;;12.35;5.60;;;;;;;26.20;100.00;98947.81;4425335;32;20080;-72
2022/07/22 07:33:47;;;;;;;11.15;6.35;;;;;;;26.22;100.00;98940.00;4422268;32;20042;-72
2022/07/22 07:36:14;;;;;;;12.15;5.72;;;;;;;26.55;100.00;98979.41;4416946;32;20050;-73
2022/07/22 07:38:41;;;;;;;12.15;5.62;;;;;;;26.73;100.00;98985.38;4430663;32;20207;-72
2022/07/22 07:41:14;;;;;;;13.30;5.53;;;;;;;26.86;100.00;98977.78;4427001;32;20064;-72
2022/07/22 07:43:41;;;;;;;9.15;6.03;;;;;;;26.86;100.00;98994.34;4430012;32;20100;-72
2022/07/22 07:46:08;;;;;;;7.75;5.72;;;;;;;27.03;100.00;98991.19;4426605;32;20054;-77
2022/07/22 07:48:34;;;;;;;17.67;5.37;;;;;;;26.75;100.00;98972.81;4408050;32;20042;-74
2022/07/22 07:51:02;;;;;;;17.25;5.40;;;;;;;26.99;100.00;98982.00;4436841;32;20034;-73
2022/07/22 07:53:28;;;;;;;11.20;5.45;;;;;;;26.86;100.00;98961.22;4435470;32;20031;-75
2022/07/22 07:55:54;;;;;;;10.15;6.50;;;;;;;27.23;100.00;98993.97;4413120;32;20067;-72
2022/07/22 07:58:22;;;;;;;21.05;5.60;;;;;;;27.01;100.00;98954.81;4435049;32;20134;-72
2022/07/22 08:00:48;;;;;;;8.18;4.90;;;;;;;26.99;100.00;98966.22;4440077;32;20089;-72
2022/07/22 08:03:15;;;;;;;12.88;5.53;;;;;;;27.29;100.00;99014.66;4408646;32;20031;-73
2022/07/22 08:05:42;;;;;;;11.48;5.68;;;;;;;27.48;100.00;99025.72;4431328;32;20086;-73
2022/07/22 08:08:09;;;;;;;11.82;5.78;;;;;;;27.50;100.00;99023.41;4427159;32;20038;-77
2022/07/22 08:10:36;;;;;;;5.97;5.07;;;;;;;27.49;100.00;99010.75;4426177;32;20075;-72
2022/07/22 08:13:04;;;;;;;9.43;6.35;;;;;;;27.74;99.35;99021.50;4406351;32;20042;-74
2022/07/22 08:15:31;;;;;;;19.87;7.50;;;;;;;27.70;100.00;99013.16;4431692;32;20084;-73
2022/07/22 08:17:59;;;;;;;7.72;5.62;;;;;;;27.38;100.00;98987.63;4431040;32;20030;-76
2022/07/22 08:20:27;;;;;;;6.75;5.30;;;;;;;27.67;98.86;98979.91;4413730;32;20050;-73
2022/07/22 08:22:53;;;;;;;12.45;5.97;;;;;;;27.76;99.24;99018.37;4420219;32;20878;-72
2022/07/22 08:25:22;;;;;;;10.07;5.18;;;;;;;27.87;97.12;99014.66;4423566;32;20042;-72
2022/07/22 08:27:48;;;;;;;15.52;5.82;;;;;;;27.96;94.72;99000.63;4422182;32;20066;-74
2022/07/22 08:30:16;;;;;;;19.10;5.53;;;;;;;27.86;99.80;98985.38;4421817;32;20088;-73
2022/07/22 08:32:43;;;;;;;8.60;5.57;;;;;;;27.76;100.00;98969.38;4419974;32;20064;-73
2022/07/22 08:35:10;;;;;;;13.60;5.72;;;;;;;27.91;100.00;98976.00;4418357;32;20369;-73
2022/07/22 08:37:37;;;;;;;7.80;5.65;;;;;;;27.78;98.30;98983.66;4425002;32;20072;-73
2022/07/22 08:40:06;;;;;;;8.85;5.57;;;;;;;28.11;96.56;99009.97;4420258;32;20034;-74
2022/07/22 08:42:37;;;;;;;8.90;5.75;;;;;;;28.18;96.79;98996.25;4416818;32;20191;-73
2022/07/22 08:45:05;;;;;;;15.98;6.05;;;;;;;28.06;94.42;98968.75;4420843;32;20046;-72
2022/07/22 08:47:32;;;;;;;11.95;5.70;;;;;;;28.09;92.30;98959.72;4422085;32;20086;-72
2022/07/22 08:50:02;;;;;;;5.82;5.30;;;;;;;28.08;90.61;98974.72;4421330;32;20153;-72
2022/07/22 08:52:29;;;;;;;10.30;5.03;;;;;;;28.23;90.38;98971.03;4421863;32;20035;-73
2022/07/22 08:54:55;;;;;;;9.02;5.35;;;;;;;28.31;91.08;98998.84;4421193;32;20068;-72
2022/07/22 08:57:22;;;;;;;13.52;5.80;;;;;;;28.05;93.76;98975.47;4416583;32;20054;-72
2022/07/22 08:59:53;;;;;;;9.95;5.85;;;;;;;28.37;91.04;98983.50;4401644;32;20107;-72
2022/07/22 09:02:20;;;;;;;11.77;5.47;;;;;;;28.67;84.26;99002.22;4413170;32;20056;-74
2022/07/22 09:04:55;;;;;;;8.95;5.68;;;;;;;28.70;85.49;99004.25;4421571;32;20149;-73
2022/07/22 09:07:36;;;;;;;8.15;5.15;;;;;;;28.94;82.89;99009.38;4404870;32;20072;-73
2022/07/22 09:10:15;;;;;;;5.50;4.95;;;;;;;28.86;77.32;99013.19;4407529;32;20038;-75
2022/07/22 09:13:03;;;;;;;9.95;5.18;;;;;;;28.95;80.61;99005.41;4428826;32;20033;-72
2022/07/22 09:15:39;;;;;;;12.45;6.05;;;;;;;29.02;76.76;99015.00;4415989;32;20081;-75
2022/07/22 09:18:11;;;;;;;9.85;5.97;;;;;;;29.01;78.41;99011.44;4408580;32;20080;-76
2022/07/22 09:20:38;;;;;;;14.75;5.65;;;;;;;28.86;76.77;98985.47;4413970;32;20054;-74
2022/07/22 09:23:21;;;;;;;10.63;5.45;;;;;;;28.96;78.06;99012.56;4399574;32;20060;-73
2022/07/22 09:25:50;;;;;;;16.05;6.05;;;;;;;28.85;78.52;98994.97;4419136;32;20064;-74
2022/07/22 09:28:19;;;;;;;12.63;6.47;;;;;;;28.97;78.17;98994.75;4427798;32;20394;-73
2022/07/22 09:30:54;;;;;;;7.78;5.28;;;;;;;29.29;79.35;99013.81;4428043;32;20110;-72
2022/07/22 09:33:21;;;;;;;6.12;5.37;;;;;;;29.58;79.51;99019.72;4426680;32;20345;-73
2022/07/22 09:35:49;;;;;;;17.17;7.22;;;;;;;29.40;71.16;98997.31;4415575;32;20918;-76
2022/07/22 09:38:18;;;;;;;7.95;4.80;;;;;;;29.36;70.12;99002.03;4430380;32;20056;-73
2022/07/22 09:40:46;;;;;;;7.80;5.55;;;;;;;29.64;68.09;99040.41;4430854;32;20027;-73
2022/07/22 09:43:16;;;;;;;11.55;5.32;;;;;;;29.32;66.25;99013.06;4427455;32;20025;-74
2022/07/22 09:45:58;;;;;;;10.67;4.53;;;;;;;29.25;63.07;99001.87;4430134;32;20429;-75
2022/07/22 09:48:27;;;;;;;5.65;4.47;;;;;;;29.56;61.38;99037.94;4423518;32;20414;-74
2022/07/22 09:50:56;;;;;;;19.40;5.12;;;;;;;29.49;61.98;98999.81;4417264;32;20039;-73
2022/07/22 09:53:29;;;;;;;6.40;4.80;;;;;;;29.51;63.22;98966.94;4420409;32;20436;-73
2022/07/22 09:55:58;;;;;;;12.05;4.80;;;;;;;30.15;60.11;99035.44;4417762;32;20437;-73
2022/07/22 09:58:25;;;;;;;15.35;4.25;;;;;;;30.17;58.75;99030.28;4426450;32;20041;-73
2022/07/22 10:00:53;;;;;;;10.23;4.60;;;;;;;30.15;55.13;99007.66;4400834;32;20108;-74
2022/07/22 10:03:25;;;;;;;6.80;5.10;;;;;;;30.05;55.25;99021.06;4422509;32;20042;-73
2022/07/22 10:05:52;;;;;;;17.10;4.78;;;;;;;30.31;56.23;99035.97;4421464;32;20125;-73
2022/07/22 10:08:19;;;;;;;11.88;4.55;;;;;;;30.25;57.16;99035.53;4422409;32;20064;-73
2022/07/22 10:10:46;;;;;;;9.60;6.37;;;;;;;30.03;58.77;99028.19;4422627;32;20424;-73
2022/07/22 10:13:13;;;;;;;9.10;4.50;;;;;;;29.99;59.81;99022.56;4419477;32;20383;-72
2022/07/22 10:15:39;;;;;;;6.75;4.22;;;;;;;29.94;59.85;99022.94;4419799;32;20088;-72
2022/07/22 10:18:13;;;;;;;7.57;4.53;;;;;;;29.82;61.42;99001.81;4419134;32;20042;-72
2022/07/22 10:20:40;;;;;;;12.65;5.18;;;;;;;29.76;60.55;99005.25;4422845;32;20050;-72
2022/07/22 10:23:09;;;;;;;7.10;4.45;;;;;;;29.97;59.46;99047.16;4413756;32;20042;-73
2022/07/22 10:26:08;;;;;;;12.20;5.70;;;;;;;29.82;60.04;99006.53;4419919;32;20039;-73
2022/07/22 10:28:37;;;;;;;9.68;4.50;;;;;;;29.94;60.08;99036.00;4384636;32;20090;-76
2022/07/22 10:31:14;;;;;;;6.22;4.28;;;;;;;29.85;57.52;99036.31;4421117;32;20100;-73
2022/07/22 10:33:41;;;;;;;5.18;4.32;;;;;;;29.87;56.39;99034.75;4423047;32;20067;-72
2022/07/22 10:36:09;;;;;;;7.43;4.32;;;;;;;29.61;57.67;99002.31;4422314;32;20047;-74
2022/07/22 10:38:36;;;;;;;6.45;4.75;;;;;;;29.62;58.85;99001.16;4423926;32;20046;-73
2022/07/22 10:41:10;;;;;;;9.55;4.68;;;;;;;30.11;60.25;99023.47;4429084;32;20089;-73
2022/07/22 10:43:39;;;;;;;9.60;5.35;;;;;;;30.35;57.50;99022.16;4426896;32;20064;-74
2022/07/22 10:46:06;;;;;;;6.50;4.22;;;;;;;30.59;56.75;99023.56;4431795;32;20470;-74
2022/07/22 10:48:32;;;;;;;6.12;5.10;;;;;;;30.52;57.02;98995.72;4431894;32;20073;-74
2022/07/22 10:51:20;;;;;;;12.63;4.75;;;;;;;30.71;56.52;99023.22;4418525;32;20050;-71
2022/07/22 10:53:59;;;;;;;11.32;5.95;;;;;;;30.99;57.38;99012.72;4420696;32;20047;-72
2022/07/22 10:56:26;;;;;;;17.45;4.75;;;;;;;31.21;53.82;98999.75;4421766;32;20185;-72
2022/07/22 10:58:56;;;;;;;6.45;4.95;;;;;;;30.99;54.27;99016.31;4424882;32;20042;-72
2022/07/22 11:01:26;;;;;;;5.70;5.10;;;;;;;31.53;54.90;98996.31;4423332;32;20207;-72
2022/07/22 11:03:53;;;;;;;13.43;4.95;;;;;;;31.94;51.74;99009.97;4422596;32;20093;-73
2022/07/22 11:06:26;;;;;;;11.65;4.45;;;;;;;31.99;50.71;98987.28;4422237;32;20080;-73
2022/07/22 11:08:58;;;;;;;9.30;5.03;;;;;;;32.32;51.60;99007.66;4422373;32;20128;-73
2022/07/22 11:11:55;;;;;;;6.30;4.60;;;;;;;32.27;50.85;99010.84;4424587;32;20042;-73
2022/07/22 11:14:26;;;;;;;6.03;5.30;;;;;;;32.05;50.78;99016.34;4412586;32;20047;-73
2022/07/22 11:16:56;;;;;;;10.05;4.85;;;;;;;32.36;49.25;99011.25;4414717;32;20157;-74
2022/07/22 11:19:28;;;;;;;10.68;5.12;;;;;;;32.18;48.45;98992.53;4428793;32;20082;-74
2022/07/22 11:22:01;;;;;;;5.90;5.37;;;;;;;32.84;46.42;99024.78;4426323;32;20042;-74
2022/07/22 11:24:28;;;;;;;8.40;5.72;;;;;;;33.21;45.96;99015.16;4432606;32;20046;-72
2022/07/22 11:26:56;;;;;;;6.28;5.43;;;;;;;33.19;44.88;98984.09;4432277;32;20408;-73
2022/07/22 11:29:27;;;;;;;9.95;4.80;;;;;;;33.03;46.32;99014.38;4418457;32;20108;-73